Baker City Municipal Airport
KBKE : now visible

Airfield :











YOU CAN JOIN US ON...

 
LOGIN :

Register | Disclaimer

   EN    FR    IT 

 









Legend :    VFR   Marginal VFR   IFR   Intensive IFR   Very Intensive IFR
Visi :
Ceiling :
>= 8 km
>= 3000ft
5 to 8 km
1000 to 3000 ft
1500m to 5 km
500 to 1000 ft
800 to 1500m
200 to 500 ft
< 800m
< 200 ft
Symbols :   Thunderstorms  Fog  Heavy snow  Heavy precipitations  Wind > 20 kt






- Airport Elevation : 3373 ft


KBKE - Baker City Municipal

CURRENT METAR :
  • 280053Z AUTO 12009KT 10SM CLR 01/M04 A3034 RMK AO2 SLP307 T00111044

EXPIRED METARs :
  • 272353Z AUTO 11009KT 10SM CLR 03/M04 A3034 RMK AO2 SLP304 T00281039 10072 21006 56010
  • 272253Z AUTO 10010KT 10SM CLR 05/M03 A3034 RMK AO2 SLP301 T00501033

TAF KBKE
Valid from the 28 at 00:00 until the 29 at 00:00 UTC


272332Z 2800/2824 11011KT P6SM FEW200
FM280600 10006KT P6SM VCFG SCT200
FM281800 VRB05KT P6SM BKN070
KZLC FIR / North America



MET'MAP, your aeronautical weather chart ! - Copyright ORBIFLY December 2007 - Disclaimer

ORBIFLY MET'MAP TEAM :

Programming & Development : Alexandra Zaïnal
Concept & original design : Baudouin d'Aumeries
Assistance for programming : Marc-Olivier Méhu
Technical & hardware support : Manuel Goepfert

Contact : metmap@orbifly.com




SOURCES & CREDITS :

   NOAA       Earth
Advisory